Time;durP1;ratioP1;P1;durP2;ratioP2;P2;SDS_P1;SDS_P2;PMS_P1;PMS_P2;Temp;Humidity;BMP_temperature;BMP_pressure;BME280_temperature;BME280_humidity;BME280_pressure;Samples;Min_cycle;Max_cycle;Signal;HPM_P1;HPM_P2
2021/10/16 00:01:15;;;;;;;17.42;2.00;;;29.10;15.80;;;;;;4953478;28;20159;-66
2021/10/16 00:03:41;;;;;;;6.70;1.85;;;29.00;15.80;;;;;;4967006;28;20440;-62
2021/10/16 00:06:08;;;;;;;10.15;1.60;;;28.90;15.50;;;;;;4966074;28;20552;-64
2021/10/16 00:08:34;;;;;;;15.95;1.77;;;28.80;15.40;;;;;;4966499;28;20179;-65
2021/10/16 00:11:00;;;;;;;9.68;1.77;;;28.80;16.00;;;;;;4949763;28;20075;-63
2021/10/16 00:13:27;;;;;;;14.32;1.73;;;28.80;16.20;;;;;;4952361;28;20134;-62
2021/10/16 00:15:53;;;;;;;6.07;1.45;;;28.80;16.20;;;;;;4966814;28;20076;-63
2021/10/16 00:18:19;;;;;;;6.15;1.50;;;28.70;15.70;;;;;;4965342;28;20149;-64
2021/10/16 00:20:46;;;;;;;9.35;1.60;;;28.60;15.80;;;;;;4950526;28;20544;-63
2021/10/16 00:23:12;;;;;;;11.40;1.35;;;28.60;16.50;;;;;;4951739;28;20087;-62
2021/10/16 00:25:39;;;;;;;19.95;2.95;;;28.50;16.90;;;;;;4967239;28;20023;-64
2021/10/16 00:28:06;;;;;;;56.17;4.75;;;28.50;16.90;;;;;;4967140;28;20071;-62
2021/10/16 00:30:32;;;;;;;32.38;3.25;;;28.50;17.20;;;;;;4951984;28;20448;-63
2021/10/16 00:32:59;;;;;;;17.23;1.90;;;28.30;16.70;;;;;;4952013;28;20096;-62
2021/10/16 00:35:25;;;;;;;11.18;2.00;;;28.30;17.40;;;;;;4964999;28;20469;-65
2021/10/16 00:37:52;;;;;;;8.52;1.90;;;28.20;17.40;;;;;;4965617;28;20071;-62
2021/10/16 00:40:18;;;;;;;7.93;1.80;;;28.10;17.20;;;;;;4951421;28;20084;-62
2021/10/16 00:42:46;;;;;;;8.88;1.42;;;28.00;16.60;;;;;;4966332;28;20075;-62
2021/10/16 00:45:14;;;;;;;12.65;1.40;;;27.90;17.10;;;;;;4966361;28;20096;-62
2021/10/16 00:47:42;;;;;;;6.93;1.20;;;27.80;17.70;;;;;;4966301;28;20135;-65
2021/10/16 00:50:09;;;;;;;14.65;1.58;;;27.70;18.00;;;;;;4966705;28;20110;-63
2021/10/16 00:52:37;;;;;;;8.60;1.92;;;27.60;18.30;;;;;;4966045;28;20080;-59
2021/10/16 00:55:06;;;;;;;9.38;2.28;;;27.60;29.70;;;;;;4951372;28;20147;-60
2021/10/16 00:57:32;;;;;;;10.40;2.08;;;27.40;18.80;;;;;;4950475;28;20116;-59
2021/10/16 00:59:59;;;;;;;10.48;1.70;;;27.30;18.90;;;;;;4934054;28;20079;-59
2021/10/16 01:02:25;;;;;;;5.88;1.50;;;27.20;18.70;;;;;;4966379;28;20068;-64
2021/10/16 01:04:52;;;;;;;11.60;1.40;;;27.20;19.70;;;;;;4960608;28;20126;-65
2021/10/16 01:07:18;;;;;;;5.85;1.40;;;27.00;19.30;;;;;;4966733;28;20558;-64
2021/10/16 01:09:45;;;;;;;10.45;1.45;;;26.90;19.40;;;;;;4967476;28;20083;-66
2021/10/16 01:12:12;;;;;;;19.83;1.70;;;26.90;19.60;;;;;;4952115;28;20122;-65
2021/10/16 01:15:02;;;;;;;15.52;1.70;;;26.70;20.10;;;;;;4965015;28;20142;-64
2021/10/16 01:17:32;;;;;;;12.55;1.50;;;26.60;19.90;;;;;;4951756;28;20592;-66
2021/10/16 01:20:07;;;;;;;18.70;2.00;;;26.50;19.60;;;;;;4966999;28;20621;-65
2021/10/16 01:22:36;;;;;;;12.30;1.67;;;26.50;19.80;;;;;;4951212;28;20087;-67
2021/10/16 01:25:04;;;;;;;12.45;1.70;;;26.40;20.00;;;;;;4967029;28;20076;-62
2021/10/16 01:27:32;;;;;;;9.00;1.70;;;26.40;20.70;;;;;;4919290;28;20099;-58
2021/10/16 01:29:59;;;;;;;10.05;1.70;;;26.30;20.10;;;;;;4950288;28;20116;-62
2021/10/16 01:32:26;;;;;;;9.07;1.77;;;26.30;20.00;;;;;;4935649;28;20084;-61
2021/10/16 01:34:52;;;;;;;10.82;1.75;;;26.20;20.30;;;;;;4951742;28;20103;-61
2021/10/16 01:37:20;;;;;;;13.48;1.92;;;26.10;20.40;;;;;;4951894;28;20592;-63
2021/10/16 01:39:46;;;;;;;20.23;2.45;;;26.10;20.50;;;;;;4954471;28;20095;-63
2021/10/16 01:42:13;;;;;;;13.60;2.13;;;26.00;21.30;;;;;;4969461;28;20068;-64
2021/10/16 01:44:42;;;;;;;9.90;2.08;;;25.90;22.40;;;;;;4954262;28;20466;-63
2021/10/16 01:47:09;;;;;;;10.45;2.30;;;25.80;22.00;;;;;;4955511;28;20083;-63
2021/10/16 01:49:36;;;;;;;18.25;2.63;;;25.70;22.30;;;;;;4954091;28;20096;-63
2021/10/16 01:52:03;;;;;;;14.30;2.80;;;25.70;22.70;;;;;;4969986;28;20170;-66
2021/10/16 01:54:30;;;;;;;18.67;3.75;;;25.50;22.80;;;;;;4970563;28;20158;-66
2021/10/16 01:56:57;;;;;;;20.50;3.83;;;25.40;22.50;;;;;;4970467;28;20079;-65
2021/10/16 01:59:26;;;;;;;17.63;3.78;;;25.30;23.20;;;;;;4970475;28;20076;-64
2021/10/16 02:01:56;;;;;;;19.15;4.00;;;25.10;22.90;;;;;;4970085;28;20102;-66
2021/10/16 02:04:23;;;;;;;19.85;4.88;;;25.00;23.60;;;;;;4969973;28;20126;-66
2021/10/16 02:06:49;;;;;;;12.80;5.55;;;24.90;23.80;;;;;;4953820;28;20084;-66
2021/10/16 02:09:16;;;;;;;20.60;6.15;;;24.70;23.70;;;;;;4970299;28;20071;-65
2021/10/16 02:11:42;;;;;;;36.88;6.63;;;24.60;24.10;;;;;;4955336;28;20550;-66
2021/10/16 02:14:09;;;;;;;22.85;6.35;;;24.60;24.10;;;;;;4953991;28;20146;-64
2021/10/16 02:16:36;;;;;;;19.77;6.40;;;24.40;24.30;;;;;;4972003;28;20604;-66
2021/10/16 02:19:04;;;;;;;20.85;5.72;;;24.40;24.50;;;;;;4955446;28;20168;-67
2021/10/16 02:21:30;;;;;;;22.73;6.70;;;24.30;24.90;;;;;;4968886;28;20131;-66
2021/10/16 02:23:56;;;;;;;38.67;6.93;;;24.10;25.20;;;;;;4954199;28;20126;-67
2021/10/16 02:26:23;;;;;;;37.03;6.32;;;24.10;25.50;;;;;;4953391;28;20076;-69
2021/10/16 02:28:49;;;;;;;25.50;6.15;;;23.90;25.90;;;;;;4969880;28;20084;-65
2021/10/16 02:31:16;;;;;;;26.02;6.07;;;23.80;26.20;;;;;;4969391;28;20115;-63
2021/10/16 02:33:42;;;;;;;27.10;5.28;;;23.70;26.40;;;;;;4954136;28;20087;-65
2021/10/16 02:36:09;;;;;;;35.83;5.97;;;23.60;26.70;;;;;;4954671;28;20698;-63
2021/10/16 02:38:35;;;;;;;40.28;5.70;;;23.40;27.00;;;;;;4970072;28;20076;-67
2021/10/16 02:41:02;;;;;;;27.08;5.68;;;23.30;27.40;;;;;;4953913;28;20115;-65
2021/10/16 02:43:28;;;;;;;38.05;5.22;;;23.30;27.40;;;;;;4970000;28;20100;-66
2021/10/16 02:45:55;;;;;;;38.38;5.68;;;23.20;27.60;;;;;;4953365;28;20506;-64
2021/10/16 02:48:21;;;;;;;31.17;5.40;;;23.20;27.60;;;;;;4954282;28;20075;-64
2021/10/16 02:50:47;;;;;;;34.55;6.25;;;23.10;27.40;;;;;;4953325;28;20120;-55
2021/10/16 02:53:14;;;;;;;32.10;6.80;;;23.00;27.80;;;;;;4950181;28;20546;-65
2021/10/16 02:55:40;;;;;;;31.92;7.65;;;23.00;28.00;;;;;;4969299;28;20762;-59
2021/10/16 02:58:06;;;;;;;34.47;8.70;;;23.00;28.30;;;;;;4967845;28;20075;-64
2021/10/16 03:00:33;;;;;;;38.33;9.27;;;22.70;53.20;;;;;;4968866;28;20076;-66
2021/10/16 03:02:59;;;;;;;41.63;10.38;;;22.80;28.60;;;;;;4952053;28;20080;-66
2021/10/16 03:05:25;;;;;;;43.58;9.77;;;22.80;29.60;;;;;;4953008;28;20426;-64
2021/10/16 03:07:52;;;;;;;42.00;10.73;;;22.80;29.50;;;;;;4954028;28;20088;-64
2021/10/16 03:10:18;;;;;;;;;;;22.90;29.30;;;;;;4953575;28;20088;-66
2021/10/16 03:12:44;;;;;;;43.28;11.80;;;22.90;29.20;;;;;;4952440;28;19958;-65
2021/10/16 03:15:11;;;;;;;47.55;11.75;;;22.90;29.50;;;;;;4967560;28;20088;-63
2021/10/16 03:17:37;;;;;;;38.75;10.32;;;22.90;29.50;;;;;;4951602;28;20092;-64
2021/10/16 03:20:05;;;;;;;50.03;11.45;;;22.70;28.60;;;;;;4952048;28;20079;-66
2021/10/16 03:22:31;;;;;;;41.20;11.52;;;22.70;28.80;;;;;;4963521;28;20482;-64
2021/10/16 03:24:57;;;;;;;44.88;10.77;;;22.60;28.90;;;;;;4951430;28;20087;-62
2021/10/16 03:27:24;;;;;;;44.28;10.80;;;22.60;28.70;;;;;;4951694;28;20099;-64
2021/10/16 03:29:50;;;;;;;48.38;11.63;;;22.50;28.60;;;;;;4951344;28;20182;-64
2021/10/16 03:32:16;;;;;;;45.65;11.38;;;22.40;28.40;;;;;;4951700;28;20446;-65
2021/10/16 03:34:43;;;;;;;50.25;11.63;;;22.30;27.90;;;;;;4951259;28;20142;-64
2021/10/16 03:37:09;;;;;;;52.15;11.27;;;22.30;27.40;;;;;;4951430;28;20068;-66
2021/10/16 03:39:35;;;;;;;37.85;10.68;;;22.40;26.90;;;;;;4951519;28;20095;-64
2021/10/16 03:42:02;;;;;;;51.60;11.30;;;22.50;27.20;;;;;;4951346;28;20525;-65
2021/10/16 03:44:28;;;;;;;46.50;10.00;;;22.40;27.30;;;;;;4951145;28;20497;-63
2021/10/16 03:46:56;;;;;;;50.03;10.60;;;22.40;27.80;;;;;;4950597;28;20154;-65
2021/10/16 03:49:23;;;;;;;44.80;10.63;;;22.60;27.90;;;;;;4935899;28;20080;-64
2021/10/16 03:51:49;;;;;;;;;;;22.30;27.90;;;;;;4951664;28;20090;-66
2021/10/16 03:54:15;;;;;;;45.42;10.27;;;22.30;28.70;;;;;;4966695;28;20404;-66
2021/10/16 03:56:42;;;;;;;39.30;9.20;;;22.30;28.30;;;;;;4935214;28;20080;-65
2021/10/16 03:59:08;;;;;;;46.30;9.52;;;22.20;29.20;;;;;;4951461;28;20076;-65
2021/10/16 04:01:34;;;;;;;45.35;8.88;;;22.20;28.50;;;;;;4951230;28;20521;-65
2021/10/16 04:04:00;;;;;;;;;;;22.20;28.50;;;;;;4967436;28;20053;-68
2021/10/16 04:06:27;;;;;;;48.90;9.02;;;22.10;30.70;;;;;;4950354;28;20295;-65
2021/10/16 04:08:53;;;;;;;34.60;7.78;;;22.20;29.00;;;;;;4951613;28;20087;-65
2021/10/16 04:11:19;;;;;;;;;;;22.10;29.80;;;;;;4967841;28;20089;-65
2021/10/16 04:13:45;;;;;;;38.13;8.05;;;22.10;29.80;;;;;;4951828;28;19975;-65
2021/10/16 04:16:12;;;;;;;47.08;9.20;;;22.10;29.80;;;;;;4966776;28;20068;-66
2021/10/16 04:18:38;;;;;;;47.83;8.07;;;22.00;29.60;;;;;;4952481;28;20072;-67
2021/10/16 04:21:05;;;;;;;46.35;8.07;;;22.00;30.00;;;;;;4950899;28;20049;-66
2021/10/16 04:23:31;;;;;;;39.03;7.18;;;22.00;30.30;;;;;;4951233;28;20126;-66
2021/10/16 04:25:57;;;;;;;33.83;7.25;;;21.90;30.30;;;;;;4950579;28;20079;-67
2021/10/16 04:28:24;;;;;;;34.75;7.72;;;21.80;29.80;;;;;;4950752;28;20082;-65
2021/10/16 04:30:53;;;;;;;;;;;21.70;29.90;;;;;;4967694;28;20143;-65
2021/10/16 04:33:19;;;;;;;39.47;8.55;;;21.70;30.30;;;;;;4968864;28;19997;-64
2021/10/16 04:35:45;;;;;;;;;;;21.50;30.80;;;;;;4951777;28;20075;-64
2021/10/16 04:38:12;;;;;;;99.28;26.02;;;21.40;31.00;;;;;;4967287;28;19965;-65
2021/10/16 04:40:38;;;;;;;70.78;21.38;;;21.40;30.10;;;;;;4952920;28;20072;-66
2021/10/16 04:43:08;;;;;;;71.03;19.10;;;21.40;30.50;;;;;;4950371;28;20067;-66
2021/10/16 04:45:35;;;;;;;60.17;16.52;;;21.30;31.10;;;;;;4951360;28;20072;-66
2021/10/16 04:48:04;;;;;;;60.17;14.90;;;21.40;31.10;;;;;;4950306;28;20500;-67
2021/10/16 04:50:31;;;;;;;47.80;13.55;;;21.30;31.10;;;;;;4965986;28;20123;-66
2021/10/16 04:52:57;;;;;;;58.17;14.85;;;21.30;31.60;;;;;;4954180;28;20542;-65
2021/10/16 04:55:23;;;;;;;56.08;14.18;;;21.20;31.60;;;;;;4950017;28;20092;-66
2021/10/16 04:57:50;;;;;;;58.33;14.50;;;21.20;31.50;;;;;;4950592;28;20083;-66
2021/10/16 05:00:17;;;;;;;57.60;13.75;;;21.10;31.50;;;;;;4951221;28;20447;-65
2021/10/16 05:02:44;;;;;;;51.25;13.93;;;21.10;31.60;;;;;;4950214;28;20453;-67
2021/10/16 05:05:10;;;;;;;62.92;13.85;;;21.10;32.10;;;;;;4966459;28;20091;-66
2021/10/16 05:07:37;;;;;;;53.65;13.98;;;21.00;31.80;;;;;;4950066;28;20576;-67
2021/10/16 05:10:04;;;;;;;49.33;14.35;;;20.90;31.90;;;;;;4951207;28;20095;-64
2021/10/16 05:12:31;;;;;;;49.58;15.85;;;20.90;32.30;;;;;;4958548;28;20080;-66
2021/10/16 05:14:57;;;;;;;55.85;16.85;;;20.90;31.80;;;;;;4946161;28;20091;-70
2021/10/16 05:17:24;;;;;;;73.78;18.65;;;20.80;32.20;;;;;;4954639;28;20590;-66
2021/10/16 05:19:50;;;;;;;51.40;19.00;;;20.90;32.80;;;;;;4961946;28;20179;-67
2021/10/16 05:22:16;;;;;;;60.25;20.17;;;20.80;33.00;;;;;;4955207;28;20079;-67
2021/10/16 05:24:42;;;;;;;;;;;20.70;32.70;;;;;;4954428;28;20075;-67
2021/10/16 05:27:09;;;;;;;55.30;16.92;;;20.60;33.00;;;;;;4954240;28;20018;-68
2021/10/16 05:29:35;;;;;;;;;;;20.70;33.30;;;;;;4953827;28;20075;-65
2021/10/16 05:32:01;;;;;;;56.95;18.25;;;20.70;33.30;;;;;;4970127;28;20033;-64
2021/10/16 05:34:27;;;;;;;;;;;20.60;33.70;;;;;;4955118;28;20091;-65
2021/10/16 05:36:53;;;;;;;62.30;23.48;;;20.60;33.30;;;;;;4969690;28;20405;-63
2021/10/16 05:39:19;;;;;;;;;;;20.70;33.70;;;;;;4955745;28;20522;-64
2021/10/16 05:41:48;;;;;;;62.97;20.13;;;20.60;33.90;;;;;;4970598;28;20415;-65
2021/10/16 05:44:15;;;;;;;57.22;18.60;;;20.50;33.20;;;;;;4953475;28;20187;-62
2021/10/16 05:46:42;;;;;;;53.03;17.10;;;20.60;33.40;;;;;;4953169;28;20135;-65
2021/10/16 05:49:08;;;;;;;41.80;13.35;;;20.50;33.70;;;;;;4955335;28;20602;-64
2021/10/16 05:51:34;;;;;;;;;;;20.40;32.70;;;;;;4953641;28;20139;-65
2021/10/16 05:54:01;;;;;;;44.92;13.45;;;20.30;33.00;;;;;;4970051;28;19979;-66
2021/10/16 05:56:27;;;;;;;;;;;20.30;33.70;;;;;;4953516;28;20082;-65
2021/10/16 05:58:58;;;;;;;45.17;13.27;;;20.20;33.90;;;;;;4954535;28;19967;-64
2021/10/16 06:01:25;;;;;;;61.97;13.00;;;20.30;34.10;;;;;;4951196;28;20589;-63
2021/10/16 06:03:52;;;;;;;36.25;12.57;;;20.20;33.10;;;;;;4954717;28;20091;-67
2021/10/16 06:06:18;;;;;;;;;;;20.20;31.70;;;;;;4950847;28;20163;-65
2021/10/16 06:08:44;;;;;;;52.20;13.52;;;19.90;49.30;;;;;;4952844;28;20009;-65
2021/10/16 06:11:10;;;;;;;;;;;20.20;30.40;;;;;;4952061;28;20080;-65
2021/10/16 06:13:37;;;;;;;37.95;10.23;;;19.70;43.20;;;;;;4953759;28;19966;-63
2021/10/16 06:16:03;;;;;;;36.38;9.35;;;20.10;29.70;;;;;;4954297;28;20072;-62
2021/10/16 06:18:30;;;;;;;34.97;7.32;;;20.10;28.80;;;;;;4952860;28;20087;-64
2021/10/16 06:20:56;;;;;;;;;;;20.20;27.60;;;;;;4953615;28;20076;-64
2021/10/16 06:23:22;;;;;;;31.45;5.63;;;20.30;27.10;;;;;;4952167;28;19959;-66
2021/10/16 06:25:48;;;;;;;;;;;20.20;26.90;;;;;;4936167;28;20076;-64
2021/10/16 06:28:14;;;;;;;55.22;5.80;;;19.50;41.80;;;;;;4968129;28;19959;-63
2021/10/16 06:30:44;;;;;;;18.10;3.53;;;20.30;26.50;;;;;;4966862;28;20112;-63
2021/10/16 06:33:11;;;;;;;22.05;4.70;;;20.30;26.30;;;;;;4951600;28;20087;-67
2021/10/16 06:35:37;;;;;;;;;;;20.40;26.60;;;;;;4935841;28;20556;-64
2021/10/16 06:38:04;;;;;;;14.23;4.07;;;20.30;27.20;;;;;;4952311;28;19959;-65
2021/10/16 06:40:31;;;;;;;18.70;4.22;;;20.20;27.10;;;;;;4955477;28;20098;-65
2021/10/16 06:42:57;;;;;;;16.73;4.30;;;20.10;26.70;;;;;;4951436;28;20107;-65
2021/10/16 06:45:23;;;;;;;;;;;20.00;27.60;;;;;;4953641;28;20160;-64
2021/10/16 06:47:50;;;;;;;28.83;3.30;;;20.00;27.20;;;;;;4952035;28;19967;-63
2021/10/16 06:50:16;;;;;;;18.58;3.17;;;19.90;26.60;;;;;;4952231;28;20493;-66
2021/10/16 06:52:42;;;;;;;13.93;3.08;;;19.90;25.80;;;;;;4953344;28;20878;-63
2021/10/16 06:55:09;;;;;;;20.35;2.75;;;19.90;25.80;;;;;;4953021;28;20092;-63
2021/10/16 06:57:35;;;;;;;22.10;3.33;;;19.90;25.70;;;;;;4952165;28;20107;-64
2021/10/16 07:00:02;;;;;;;;;;;19.90;25.80;;;;;;4952985;28;20090;-63
2021/10/16 07:02:29;;;;;;;13.65;2.90;;;19.80;25.30;;;;;;4967024;28;20010;-66
2021/10/16 07:04:55;;;;;;;;;;;19.80;25.00;;;;;;4951534;28;20563;-64
2021/10/16 07:07:21;;;;;;;14.02;2.97;;;19.90;24.30;;;;;;4951402;28;19966;-63
2021/10/16 07:09:47;;;;;;;;;;;19.90;23.60;;;;;;4952054;28;20170;-66
2021/10/16 07:12:14;;;;;;;16.73;3.03;;;20.00;22.90;;;;;;4953202;28;19965;-63
2021/10/16 07:14:41;;;;;;;14.88;2.65;;;20.00;22.40;;;;;;4953973;28;20426;-64
2021/10/16 07:20:09;;;;;;;11.45;2.72;;;20.20;21.60;;;;;;4952428;28;20143;-65
2021/10/16 07:22:36;;;;;;;10.35;2.13;;;20.30;21.20;;;;;;4953328;28;20079;-64
2021/10/16 07:25:03;;;;;;;10.05;2.00;;;20.30;21.00;;;;;;4953583;28;20175;-64
2021/10/16 07:27:29;;;;;;;16.40;2.47;;;20.30;20.70;;;;;;4951064;28;20155;-64
2021/10/16 07:29:55;;;;;;;;;;;20.40;20.80;;;;;;4951670;28;20121;-65
2021/10/16 07:32:22;;;;;;;14.30;2.38;;;20.40;20.70;;;;;;4950531;28;20383;-66
2021/10/16 07:34:48;;;;;;;14.25;2.47;;;20.40;20.60;;;;;;4963693;28;20766;-66
2021/10/16 07:37:14;;;;;;;20.27;2.75;;;20.40;20.60;;;;;;4951545;28;20151;-65
2021/10/16 07:39:40;;;;;;;;;;;20.30;20.50;;;;;;4952153;28;20159;-65
2021/10/16 07:42:07;;;;;;;14.75;3.13;;;20.30;20.90;;;;;;4952352;28;20062;-64
2021/10/16 07:44:33;;;;;;;13.95;3.90;;;20.20;21.10;;;;;;4951481;28;20101;-65
2021/10/16 07:46:59;;;;;;;;;;;20.20;20.80;;;;;;4967710;28;20075;-64
2021/10/16 07:49:26;;;;;;;18.73;5.00;;;20.20;20.60;;;;;;4953225;28;19966;-63
2021/10/16 07:51:52;;;;;;;24.08;6.65;;;20.20;20.90;;;;;;4950764;28;20091;-63
2021/10/16 07:54:18;;;;;;;28.27;7.03;;;20.20;20.90;;;;;;4966573;28;20554;-64
2021/10/16 07:56:45;;;;;;;24.23;5.70;;;20.10;21.10;;;;;;4950800;28;20178;-65
2021/10/16 07:59:12;;;;;;;17.15;3.47;;;20.10;21.00;;;;;;4951499;28;20072;-66
2021/10/16 08:01:38;;;;;;;;;;;20.00;21.00;;;;;;4965860;28;20091;-65
2021/10/16 08:04:04;;;;;;;15.77;2.33;;;20.00;21.20;;;;;;4950759;28;19975;-64
2021/10/16 08:06:31;;;;;;;9.82;1.83;;;20.00;21.20;;;;;;4950630;28;20542;-65
2021/10/16 08:08:57;;;;;;;9.50;1.90;;;20.00;21.50;;;;;;4966536;28;20178;-65
2021/10/16 08:11:23;;;;;;;;;;;19.90;21.50;;;;;;4965772;28;20088;-64
2021/10/16 08:13:49;;;;;;;10.93;1.90;;;19.90;21.50;;;;;;4935762;28;19982;-65
2021/10/16 08:16:16;;;;;;;17.58;2.22;;;19.90;21.90;;;;;;4952165;28;20586;-64
2021/10/16 08:18:42;;;;;;;13.02;1.80;;;19.80;21.90;;;;;;4965888;28;20212;-66
2021/10/16 08:21:09;;;;;;;11.00;1.67;;;19.70;21.90;;;;;;4950839;28;20072;-64
2021/10/16 08:23:35;;;;;;;;;;;19.70;21.70;;;;;;4965026;28;20122;-65
2021/10/16 08:26:01;;;;;;;10.23;1.83;;;19.70;21.80;;;;;;4949059;28;19966;-64
2021/10/16 08:28:28;;;;;;;14.00;1.70;;;19.70;21.90;;;;;;4950688;28;20435;-65
2021/10/16 08:30:56;;;;;;;12.18;2.00;;;19.70;21.70;;;;;;4949301;28;20533;-64
2021/10/16 08:33:23;;;;;;;9.77;1.70;;;19.70;22.20;;;;;;4933599;28;20111;-65
2021/10/16 08:35:50;;;;;;;12.35;1.70;;;19.60;22.30;;;;;;4949078;28;20091;-64
2021/10/16 08:38:17;;;;;;;14.32;2.17;;;19.60;22.60;;;;;;4966000;28;20105;-63
2021/10/16 08:40:44;;;;;;;11.98;1.80;;;19.50;23.30;;;;;;4934739;28;20126;-64
2021/10/16 08:43:11;;;;;;;8.15;1.90;;;19.60;23.10;;;;;;4935617;28;20529;-65
2021/10/16 08:45:37;;;;;;;14.70;2.55;;;19.50;23.00;;;;;;4950650;28;20541;-64
2021/10/16 08:48:06;;;;;;;18.40;2.97;;;19.50;23.20;;;;;;4956369;28;20410;-65
2021/10/16 08:50:33;;;;;;;16.08;3.00;;;19.40;23.20;;;;;;4972043;28;20107;-64
2021/10/16 08:53:00;;;;;;;18.13;3.70;;;19.40;23.10;;;;;;4956814;28;20107;-65
2021/10/16 08:55:26;;;;;;;14.68;3.88;;;19.30;23.50;;;;;;4959883;28;20107;-66
2021/10/16 08:57:53;;;;;;;14.48;3.55;;;19.30;23.40;;;;;;4956703;28;20076;-65
2021/10/16 09:00:54;;;;;;;12.77;3.10;;;19.30;23.10;;;;;;4958074;28;20125;-65
2021/10/16 09:03:45;;;;;;;21.35;3.30;;;19.30;23.30;;;;;;4956035;28;20573;-65
2021/10/16 09:06:35;;;;;;;17.30;4.43;;;19.30;23.70;;;;;;4956159;28;20075;-65
2021/10/16 09:09:09;;;;;;;19.92;4.45;;;19.20;23.20;;;;;;4956098;28;20083;-64
2021/10/16 09:11:44;;;;;;;18.98;3.17;;;19.20;23.20;;;;;;4957522;28;20604;-65
2021/10/16 09:14:28;;;;;;;12.45;2.85;;;19.20;22.80;;;;;;4955080;28;20099;-64
2021/10/16 09:16:59;;;;;;;16.60;3.47;;;19.20;23.20;;;;;;4971869;28;20091;-66
2021/10/16 09:19:27;;;;;;;20.08;3.40;;;19.20;23.40;;;;;;4956752;28;20075;-63
2021/10/16 09:21:56;;;;;;;17.08;4.50;;;19.20;23.60;;;;;;4971213;28;20738;-64
2021/10/16 09:24:26;;;;;;;11.57;3.97;;;19.20;23.70;;;;;;4956469;28;20079;-65
2021/10/16 09:26:58;;;;;;;21.10;3.88;;;19.20;23.40;;;;;;4940402;28;20072;-64
2021/10/16 09:29:28;;;;;;;16.73;3.25;;;19.10;23.50;;;;;;4955161;28;20088;-65
2021/10/16 09:32:04;;;;;;;10.68;2.30;;;19.00;23.70;;;;;;4940747;28;20107;-65
2021/10/16 09:34:33;;;;;;;21.55;2.47;;;19.00;23.10;;;;;;4956364;28;20095;-64
2021/10/16 09:37:09;;;;;;;7.45;2.40;;;18.90;22.80;;;;;;4970387;28;20098;-64
2021/10/16 09:39:39;;;;;;;9.80;2.47;;;18.90;22.70;;;;;;4956156;28;20079;-66
2021/10/16 09:42:07;;;;;;;9.10;2.50;;;18.90;22.70;;;;;;4955163;28;20092;-67
2021/10/16 09:44:36;;;;;;;11.80;2.60;;;18.80;22.70;;;;;;4956353;28;20549;-64
2021/10/16 09:47:17;;;;;;;16.88;3.10;;;18.80;22.70;;;;;;4971759;28;20111;-65
2021/10/16 09:49:47;;;;;;;16.80;2.50;;;18.80;22.70;;;;;;4956878;28;20558;-66
2021/10/16 09:52:16;;;;;;;14.75;2.45;;;18.80;22.90;;;;;;4954829;28;20087;-65
2021/10/16 09:54:44;;;;;;;13.32;2.45;;;18.70;23.00;;;;;;4957534;28;20095;-66
2021/10/16 09:57:14;;;;;;;14.48;2.80;;;18.70;22.80;;;;;;4953773;28;20122;-64
2021/10/16 09:59:42;;;;;;;17.45;3.30;;;18.70;23.00;;;;;;4968439;28;20479;-65
2021/10/16 10:02:10;;;;;;;13.95;3.45;;;18.70;22.80;;;;;;4951007;28;20094;-65
2021/10/16 10:04:42;;;;;;;13.63;3.65;;;18.70;23.10;;;;;;4952721;28;20130;-64
2021/10/16 10:07:09;;;;;;;17.55;3.03;;;18.60;23.30;;;;;;4967142;28;20090;-63
2021/10/16 10:09:39;;;;;;;10.90;3.20;;;18.60;23.10;;;;;;4955670;28;20501;-63
2021/10/16 10:12:07;;;;;;;14.02;2.47;;;18.60;22.90;;;;;;4968337;28;20107;-63
2021/10/16 10:14:34;;;;;;;17.08;2.75;;;18.60;23.20;;;;;;4954797;28;20084;-65
2021/10/16 10:17:05;;;;;;;9.25;1.90;;;18.60;22.40;;;;;;4952194;28;20106;-65
2021/10/16 10:19:37;;;;;;;11.90;2.17;;;18.50;22.50;;;;;;4952330;28;20071;-64
2021/10/16 10:22:12;;;;;;;12.52;2.25;;;18.50;22.60;;;;;;4952574;28;20118;-63
2021/10/16 10:24:43;;;;;;;12.63;2.22;;;18.50;22.40;;;;;;4952098;28;20076;-67
2021/10/16 10:27:12;;;;;;;12.63;2.05;;;18.50;22.30;;;;;;4967686;28;20145;-64
2021/10/16 10:29:42;;;;;;;17.77;2.83;;;18.60;22.20;;;;;;4966062;28;20585;-66
2021/10/16 10:32:25;;;;;;;13.90;2.25;;;18.60;22.30;;;;;;4967216;28;20090;-67
2021/10/16 10:35:03;;;;;;;7.60;2.42;;;18.60;22.40;;;;;;4955614;28;20203;-65
2021/10/16 10:37:44;;;;;;;12.43;2.42;;;18.50;22.50;;;;;;4951595;28;20538;-65
2021/10/16 10:40:21;;;;;;;16.30;2.85;;;18.50;22.60;;;;;;4951999;28;21501;-65
2021/10/16 10:42:51;;;;;;;;;;;18.50;22.50;;;;;;4955185;28;20087;-66
2021/10/16 10:45:23;;;;;;;12.63;2.20;;;18.50;22.70;;;;;;4953216;28;20014;-67
2021/10/16 10:48:17;;;;;;;6.68;1.98;;;18.50;22.60;;;;;;4936691;28;20078;-65
2021/10/16 10:50:53;;;;;;;11.80;2.47;;;18.40;22.60;;;;;;4949344;28;20095;-67
2021/10/16 10:53:27;;;;;;;17.92;3.22;;;18.50;22.80;;;;;;4936442;28;20103;-64
2021/10/16 10:56:19;;;;;;;12.73;2.67;;;18.40;22.80;;;;;;4953488;28;20090;-65
2021/10/16 10:59:01;;;;;;;11.75;2.55;;;18.50;23.20;;;;;;4966566;28;20075;-64
2021/10/16 11:01:45;;;;;;;14.70;2.22;;;18.40;22.90;;;;;;4951574;28;20063;-65
2021/10/16 11:04:44;;;;;;;8.65;1.92;;;18.50;22.50;;;;;;4951276;28;20550;-64
2021/10/16 11:07:31;;;;;;;11.50;2.13;;;18.50;22.50;;;;;;4945382;28;20138;-63
2021/10/16 11:09:59;;;;;;;12.40;2.20;;;18.50;22.70;;;;;;4947904;28;20111;-64
2021/10/16 11:12:33;;;;;;;14.10;2.58;;;18.50;22.20;;;;;;4951493;28;20076;-65
2021/10/16 11:15:00;;;;;;;10.82;2.25;;;18.60;22.40;;;;;;4951862;28;20533;-66
2021/10/16 11:17:42;;;;;;;7.60;2.03;;;18.60;22.20;;;;;;4952343;28;20506;-64
2021/10/16 11:20:13;;;;;;;13.43;2.13;;;18.60;22.10;;;;;;4950931;28;20154;-64
2021/10/16 11:22:52;;;;;;;15.93;2.08;;;18.70;22.20;;;;;;4950499;28;20581;-66
2021/10/16 11:25:25;;;;;;;11.50;2.10;;;18.70;22.30;;;;;;4951149;28;20093;-65
2021/10/16 11:28:09;;;;;;;6.15;1.55;;;18.60;22.30;;;;;;4966157;28;20083;-64
2021/10/16 11:30:45;;;;;;;10.68;1.90;;;18.60;22.80;;;;;;4950760;28;20126;-63
2021/10/16 11:33:13;;;;;;;9.27;2.40;;;18.60;22.90;;;;;;4950222;28;20075;-65
2021/10/16 11:35:42;;;;;;;11.98;2.30;;;18.60;22.80;;;;;;4950688;28;20100;-65
2021/10/16 11:38:11;;;;;;;8.20;1.70;;;18.60;23.10;;;;;;4950343;28;20172;-65
2021/10/16 11:40:38;;;;;;;10.80;2.03;;;18.60;22.70;;;;;;4950777;28;20071;-66
2021/10/16 11:43:22;;;;;;;14.55;2.38;;;18.80;22.90;;;;;;4950806;28;20076;-66
2021/10/16 11:45:50;;;;;;;9.77;1.80;;;18.70;22.10;;;;;;4965772;28;20084;-67
2021/10/16 11:48:20;;;;;;;10.95;2.50;;;18.70;22.20;;;;;;4966392;28;20088;-66
2021/10/16 11:50:48;;;;;;;6.55;1.55;;;18.60;22.60;;;;;;4948368;28;20080;-64
2021/10/16 11:53:21;;;;;;;9.20;1.60;;;18.60;22.60;;;;;;4951283;28;20135;-67
2021/10/16 11:55:55;;;;;;;8.18;1.75;;;18.60;22.70;;;;;;4965426;28;20119;-66
2021/10/16 11:58:23;;;;;;;11.68;1.98;;;18.60;23.10;;;;;;4949961;28;20071;-65
2021/10/16 12:00:52;;;;;;;11.65;2.25;;;18.50;23.30;;;;;;4949706;28;20076;-64
2021/10/16 12:03:44;;;;;;;6.45;1.27;;;18.50;23.50;;;;;;4967099;28;20111;-65
2021/10/16 12:06:18;;;;;;;8.25;1.73;;;18.40;23.90;;;;;;4949767;28;20084;-65
2021/10/16 12:08:54;;;;;;;4.18;1.60;;;18.40;24.40;;;;;;4965290;28;20082;-63
2021/10/16 12:11:23;;;;;;;7.63;1.30;;;18.40;24.80;;;;;;4951443;28;20102;-66
2021/10/16 12:13:56;;;;;;;6.30;1.50;;;18.40;25.00;;;;;;4952047;28;20570;-65
2021/10/16 12:16:25;;;;;;;9.38;1.50;;;18.30;25.60;;;;;;4965411;28;20068;-65
2021/10/16 12:18:57;;;;;;;8.38;1.60;;;18.30;25.70;;;;;;4951460;28;20159;-64
2021/10/16 12:21:26;;;;;;;8.85;1.88;;;18.20;26.50;;;;;;4951877;28;20071;-65
2021/10/16 12:23:53;;;;;;;12.75;2.33;;;18.20;26.10;;;;;;4950572;28;20618;-66
2021/10/16 12:26:29;;;;;;;11.27;2.88;;;18.20;26.10;;;;;;4949282;28;20572;-65
2021/10/16 12:28:57;;;;;;;11.60;2.55;;;18.20;26.30;;;;;;4949173;28;20083;-66
2021/10/16 12:31:24;;;;;;;11.38;2.00;;;18.20;26.20;;;;;;4949558;28;20112;-65
2021/10/16 12:34:19;;;;;;;7.15;1.80;;;18.20;25.90;;;;;;4949523;28;20087;-64
2021/10/16 12:36:54;;;;;;;9.88;1.95;;;18.10;26.40;;;;;;4949122;28;20103;-63
2021/10/16 12:39:33;;;;;;;6.05;1.60;;;18.00;26.40;;;;;;4949257;28;20159;-67
2021/10/16 12:42:35;;;;;;;7.55;1.88;;;18.00;26.30;;;;;;4949916;28;20094;-64
2021/10/16 12:45:10;;;;;;;6.07;1.40;;;18.00;25.70;;;;;;4946298;28;20087;-65
2021/10/16 12:47:36;;;;;;;7.60;1.40;;;18.10;25.90;;;;;;4950599;28;20572;-64
2021/10/16 12:50:05;;;;;;;7.47;1.67;;;18.00;25.90;;;;;;4949930;28;20130;-65
2021/10/16 12:52:46;;;;;;;8.18;1.48;;;18.00;25.50;;;;;;4948922;28;20127;-66
2021/10/16 12:55:17;;;;;;;5.82;1.10;;;18.10;24.40;;;;;;4965766;28;20182;-66
2021/10/16 12:57:57;;;;;;;8.65;1.27;;;18.10;24.10;;;;;;4949689;28;20080;-65